Felton, CA (95018)

10:35 AM PDT on September 02, 2015 (GMT -0700)
Quail Hollow | | Change Station
CLOSE
Current Station
Personal Weather Station
Location: Felton, CA
Elevation: 381 ft
Nearby Weather Stations

Elev 381 ft 37.08 °N, 122.06 °W | Updated 3 minutes ago

Overcast
Overcast
69.1 °F
Feels Like 69.1 °F
N
0.0
Wind Variable Wind from SSW
Gusts 5.0 mph

Today
High -- | Low -- °F
--% Chance of Precip.
Yesterday
High -- | Low -- °F
Precip. -- in
6:39 AM 7:35 PM
Waning Gibbous, 78% visible
Pressure 29.99 in
Visibility 10.0 miles
Clouds Overcast 1700 ft
Dew Point 58 °F
Humidity 68%
Rainfall 0.01 in
Snow Depth Not available.
UV 1 out of 12
Pollen 7.10 out of 12
Air Quality Not available.
Flu Activity Not available.
METAR KWVI 021653Z AUTO 16004KT 10SM OVC017 19/13 A2999 RMK AO2 SLP153 T01890128
Pressure 29.99 in
Visibility 10.0 miles
Clouds Overcast 1700 ft
Dew Point 58 °F
Humidity 68%
Rainfall 0.01 in
Snow Depth Not available.
UV 1 out of 12
Pollen 7.10 out of 12
Air Quality Not available.
Flu Activity Not available.
METAR KWVI 021653Z AUTO 16004KT 10SM OVC017 19/13 A2999 RMK AO2 SLP153 T01890128

10-Day Weather Forecast

×

Almanac

Astronomy

Sep. 02, 2015 Rise Set
Actual Time
Civil Twilight
Nautical Twilight
Astronomical Twilight
Moon
Length of Visible Light
Length of Day
Tomorrow will be .
, % of the Moon is Illuminated

Today's Extremes

State Highs State Lows

Community

WunderPhotos

Upload Photos

1,851,787 photos uploaded!

WunderBlogs® & News

Nearby

Air Quality

  Air Quality AQ Index Pollutant
Not available.

Snow Depth

Station Depth Elevation

Earthquake Activity

City Distance Mag. Time & Date
Minimum magnitude displayed is 2.5.

Coastal Water Temperatures

Place Temperature

Stations

Nearby Weather Stations

Station Location Temp. Windchill Dew Point Humidity Wind Precip. Elev Updated Type